Southern Illinois Airport
KMDH : rendu visible

Aérodrome :











RETROUVEZ-NOUS SUR...

 
LOGIN :

S'inscrire | Disclaimer

   EN    FR    IT 

 









Légende :    VFR   VFR Marginal   IFR   IFR Intensif   IFR Très Intensif
Visi : 
Plafond : 
>= 8 km
>= 3000ft
5 à 8 km
1000 à 3000 ft
1500m à 5 km
500 à 1000 ft
800 à 1500m
200 à 500 ft
< 800m
< 200 ft
Symboles :   Orages  Brouillard  Fortes neiges  Fortes précipitations  Vent > 20 kt






- Altitude de l'aérodrome : 411 ft
- Code IATA : MDH


KMDH - Southern Illinois

DERNIER METAR :
  • 162252Z 02005KT 7SM CLR 06/M01 A3020 RMK AO2 SLP231 T00611006

METARs EXPIRÉS :
  • 162152Z 01005KT 7SM CLR 09/00 A3021 RMK AO2 SLP234 T00940000
  • 162052Z 05005KT 7SM CLR 09/00 A3022 RMK AO2 SLP238 T00940000 56022

TAF N/A



MET'MAP, la Météo Aéronautique d'un coup d'oeil ! - Copyright ORBIFLY Décembre 2007 - Disclaimer

ORBIFLY MET'MAP TEAM :

Programmation & Développement : Alexandra Zaïnal
Conception & Développement : Baudouin d'Aumeries
Co-Programmation & Développement : Marc-Olivier Méhu
Soutien technique & logistique : Manuel Goepfert

Contact : metmap@orbifly.com




SOURCES & CREDITS :

   NOAA       Earth
Advisory